createdAt,value
2022-09-02T00:01:24.151Z,99212.69
2022-09-02T00:03:52.059Z,99213.69
2022-09-02T00:06:19.293Z,99215.28
2022-09-02T00:08:46.196Z,99211.00
2022-09-02T00:11:16.760Z,99206.28
2022-09-02T00:13:43.907Z,99199.41
2022-09-02T00:16:11.617Z,99201.03
2022-09-02T00:18:39.683Z,99204.38
2022-09-02T00:21:13.637Z,99201.69
2022-09-02T00:23:41.635Z,99199.19
2022-09-02T00:26:08.372Z,99187.91
2022-09-02T00:28:35.418Z,99190.59
2022-09-02T00:31:02.490Z,99195.84
2022-09-02T00:33:29.111Z,99192.38
2022-09-02T00:35:55.919Z,99199.25
2022-09-02T00:38:23.072Z,99193.13
2022-09-02T00:40:50.661Z,99190.59
2022-09-02T00:43:37.551Z,99184.31
2022-09-02T00:46:04.236Z,99185.09
2022-09-02T00:48:31.605Z,99190.28
2022-09-02T00:50:58.413Z,99184.25
2022-09-02T00:53:26.219Z,99185.22
2022-09-02T00:55:52.994Z,99184.78
2022-09-02T00:58:25.387Z,99186.56
2022-09-02T01:00:58.256Z,99178.00
2022-09-02T01:03:28.826Z,99177.75
2022-09-02T01:05:59.954Z,99185.69
2022-09-02T01:08:30.185Z,99175.16
2022-09-02T01:10:57.500Z,99175.25
2022-09-02T01:13:27.383Z,99183.78
2022-09-02T01:16:07.126Z,99178.53
2022-09-02T01:18:36.706Z,99182.94
2022-09-02T01:21:03.954Z,99193.38
2022-09-02T01:23:34.814Z,99193.28
2022-09-02T01:26:02.119Z,99194.94
2022-09-02T01:28:28.617Z,99200.88
2022-09-02T01:30:55.412Z,99198.19
2022-09-02T01:33:23.369Z,99206.88
2022-09-02T01:35:52.356Z,99199.84
2022-09-02T01:38:19.477Z,99198.03
2022-09-02T01:40:46.683Z,99191.84
2022-09-02T01:43:18.068Z,99198.06
2022-09-02T01:45:46.705Z,99196.38
2022-09-02T01:48:21.591Z,99193.44
2022-09-02T01:50:57.518Z,99192.56
2022-09-02T01:53:24.193Z,99193.50
2022-09-02T01:55:50.904Z,99196.88
2022-09-02T01:58:17.504Z,99198.38
2022-09-02T02:00:44.287Z,99190.66
2022-09-02T02:03:10.997Z,99192.34
2022-09-02T02:05:37.876Z,99195.06
2022-09-02T02:08:05.283Z,99191.53
2022-09-02T02:10:32.501Z,99196.56
2022-09-02T02:13:01.087Z,99197.03
2022-09-02T02:17:53.265Z,99188.31
2022-09-02T02:20:27.249Z,99188.38
2022-09-02T02:22:54.048Z,99191.84
2022-09-02T02:25:21.456Z,99195.09
2022-09-02T02:27:49.049Z,99195.97
2022-09-02T02:30:16.926Z,99191.72
2022-09-02T02:32:46.981Z,99189.09
2022-09-02T02:35:16.057Z,99198.63
2022-09-02T02:37:42.877Z,99189.97
2022-09-02T02:40:12.059Z,99190.09
2022-09-02T02:42:39.784Z,99189.97
2022-09-02T02:45:10.089Z,99191.38
2022-09-02T02:47:42.773Z,99186.06
2022-09-02T02:50:12.272Z,99185.06
2022-09-02T02:52:41.221Z,99185.00
2022-09-02T02:55:09.327Z,99187.66
2022-09-02T02:57:36.502Z,99175.63
2022-09-02T03:00:11.751Z,99182.41
2022-09-02T03:02:38.486Z,99185.06
2022-09-02T03:05:07.015Z,99173.88
2022-09-02T03:07:34.504Z,99174.72
2022-09-02T03:10:02.981Z,99172.94
2022-09-02T03:12:31.638Z,99179.94
2022-09-02T03:15:03.103Z,99179.59
2022-09-02T03:17:32.429Z,99182.13
2022-09-02T03:19:59.493Z,99180.56
2022-09-02T03:22:29.458Z,99187.31
2022-09-02T03:25:01.724Z,99176.19
2022-09-02T03:27:28.376Z,99177.00
2022-09-02T03:29:55.567Z,99174.31
2022-09-02T03:32:22.196Z,99184.41
2022-09-02T03:34:52.923Z,99180.38
2022-09-02T03:37:22.489Z,99175.19
2022-09-02T03:39:51.427Z,99177.88
2022-09-02T03:42:19.536Z,99183.84
2022-09-02T03:44:47.294Z,99176.94
2022-09-02T03:47:15.205Z,99182.91
2022-09-02T03:49:41.757Z,99177.72
2022-09-02T03:52:10.879Z,99179.41
2022-09-02T03:54:37.385Z,99176.81
2022-09-02T03:57:04.227Z,99179.38
2022-09-02T03:59:31.048Z,99175.81
2022-09-02T04:01:58.090Z,99183.44
2022-09-02T04:04:24.812Z,99173.00
2022-09-02T04:06:51.336Z,99176.28
2022-09-02T04:09:18.078Z,99175.56
2022-09-02T04:11:45.780Z,99171.97
2022-09-02T04:14:12.587Z,99178.53
2022-09-02T04:17:35.761Z,99177.81
2022-09-02T04:20:58.794Z,99180.09
2022-09-02T04:23:25.362Z,99177.16
2022-09-02T04:25:52.029Z,99178.03
2022-09-02T04:28:18.584Z,99167.72
2022-09-02T04:30:45.097Z,99170.97
2022-09-02T04:33:12.117Z,99166.47
2022-09-02T04:35:43.854Z,99162.56
2022-09-02T04:38:10.975Z,99161.88
2022-09-02T04:40:45.710Z,99166.38
2022-09-02T04:43:13.637Z,99174.50
2022-09-02T04:45:41.406Z,99167.13
2022-09-02T04:48:08.111Z,99171.97
2022-09-02T04:50:36.669Z,99169.44
2022-09-02T04:53:04.126Z,99175.06
2022-09-02T04:55:31.786Z,99171.84
2022-09-02T04:57:59.053Z,99176.28
2022-09-02T05:00:25.959Z,99169.97
2022-09-02T05:02:54.545Z,99164.66
2022-09-02T05:05:24.395Z,99170.06
2022-09-02T05:07:50.989Z,99171.22
2022-09-02T05:10:19.902Z,99168.94
2022-09-02T05:12:46.455Z,99169.69
2022-09-02T05:15:13.338Z,99167.00
2022-09-02T05:17:40.039Z,99169.53
2022-09-02T05:20:08.522Z,99168.88
2022-09-02T05:22:36.186Z,99167.56
2022-09-02T05:25:06.437Z,99168.19
2022-09-02T05:27:33.386Z,99169.81
2022-09-02T05:29:59.907Z,99177.75
2022-09-02T05:32:27.826Z,99165.06
2022-09-02T05:34:55.999Z,99179.72
2022-09-02T05:37:23.459Z,99176.00
2022-09-02T05:39:50.400Z,99169.81
2022-09-02T05:42:19.604Z,99175.66
2022-09-02T05:44:46.424Z,99170.88
2022-09-02T06:47:10.036Z,99135.00
2022-09-02T06:49:36.554Z,99129.78
2022-09-02T06:52:05.552Z,99130.47
2022-09-02T06:54:32.254Z,99134.41
2022-09-02T06:56:58.820Z,99131.06
2022-09-02T06:59:25.390Z,99126.94
2022-09-02T07:01:52.155Z,99127.78
2022-09-02T07:04:37.905Z,99132.25
2022-09-02T07:07:06.696Z,99134.84
2022-09-02T07:09:33.383Z,99132.94
2022-09-02T07:12:04.958Z,99132.38
2022-09-02T07:14:34.540Z,99136.78
2022-09-02T07:17:01.075Z,99134.28
2022-09-02T07:19:27.628Z,99130.63
2022-09-02T07:21:54.316Z,99136.91
2022-09-02T07:24:21.262Z,99133.31
2022-09-02T07:26:53.598Z,99132.25
2022-09-02T07:29:22.939Z,99137.94
2022-09-02T07:31:50.147Z,99128.50
2022-09-02T07:34:17.820Z,99136.34
2022-09-02T07:36:46.026Z,99129.53
2022-09-02T07:39:14.547Z,99142.97
2022-09-02T07:41:42.812Z,99131.13
2022-09-02T07:44:10.090Z,99139.00
2022-09-02T07:46:37.543Z,99143.34
2022-09-02T07:49:09.345Z,99127.81
2022-09-02T07:51:38.610Z,99121.72
2022-09-02T07:54:09.415Z,99120.72
2022-09-02T07:56:36.157Z,99126.16
2022-09-02T07:59:03.234Z,99123.53
2022-09-02T08:01:30.778Z,99115.72
2022-09-02T08:03:59.425Z,99120.91
2022-09-02T08:06:34.495Z,99121.81
2022-09-02T08:09:05.382Z,99123.56
2022-09-02T08:11:33.849Z,99116.56
2022-09-02T08:14:00.702Z,99121.81
2022-09-02T08:16:27.579Z,99116.53
2022-09-02T08:18:54.632Z,99124.41
2022-09-02T08:21:25.636Z,99117.44
2022-09-02T08:23:52.327Z,99124.38
2022-09-02T08:26:19.194Z,99113.97
2022-09-02T08:28:47.832Z,99117.47
2022-09-02T08:31:14.512Z,99113.06
2022-09-02T08:33:41.090Z,99111.31
2022-09-02T08:36:11.088Z,99109.53
2022-09-02T08:38:38.428Z,99120.91
2022-09-02T08:41:24.271Z,99107.78
2022-09-02T08:43:59.179Z,99108.53
2022-09-02T08:46:28.812Z,99109.41
2022-09-02T08:49:04.978Z,99106.75
2022-09-02T08:51:37.228Z,99104.91
2022-09-02T08:54:10.560Z,99110.03
2022-09-02T08:56:38.792Z,99101.38
2022-09-02T08:59:07.152Z,99094.38
2022-09-02T09:01:51.824Z,99104.81
2022-09-02T09:04:43.259Z,99107.28
2022-09-02T09:07:53.663Z,99104.59
2022-09-02T09:10:25.856Z,99103.09
2022-09-02T09:12:58.123Z,99110.16
2022-09-02T09:15:36.966Z,99103.78
2022-09-02T09:18:07.990Z,99103.06
2022-09-02T09:20:41.494Z,99094.31
2022-09-02T09:23:26.360Z,99092.22
2022-09-02T09:25:57.633Z,99092.47
2022-09-02T09:28:24.272Z,99094.94
2022-09-02T09:30:51.238Z,99079.72
2022-09-02T09:33:22.641Z,99089.59
2022-09-02T09:35:51.908Z,99086.84
2022-09-02T09:38:30.424Z,99094.66
2022-09-02T09:41:29.059Z,99075.22
2022-09-02T09:43:55.714Z,99076.78
2022-09-02T09:46:25.617Z,99079.69
2022-09-02T09:48:52.540Z,99080.22
2022-09-02T09:51:19.183Z,99058.50
2022-09-02T09:53:46.388Z,99062.41
2022-09-02T09:56:15.848Z,99059.69
2022-09-02T09:58:42.348Z,99070.88
2022-09-02T10:01:24.187Z,99050.31
2022-09-02T10:03:53.958Z,99052.16
2022-09-02T10:06:29.770Z,99057.00
2022-09-02T10:09:14.737Z,99055.41
2022-09-02T10:12:02.869Z,99035.69
2022-09-02T10:14:51.714Z,99029.97
2022-09-02T10:23:36.642Z,99041.53
2022-09-02T10:29:21.869Z,99027.81
2022-09-02T10:32:27.431Z,99029.25
2022-09-02T10:34:57.609Z,99026.19
2022-09-02T10:37:28.099Z,99021.56
2022-09-02T10:40:04.003Z,99020.44
2022-09-02T10:42:45.789Z,99019.59
2022-09-02T10:45:21.775Z,99015.38
2022-09-02T10:48:02.583Z,99002.22
2022-09-02T10:50:41.230Z,99012.44
2022-09-02T10:53:21.457Z,99006.81
2022-09-02T10:55:58.786Z,98996.25
2022-09-02T10:58:37.638Z,99000.25
2022-09-02T11:01:07.305Z,99011.41
2022-09-02T11:03:39.117Z,99009.63
2022-09-02T11:06:35.323Z,99009.81
2022-09-02T11:09:31.973Z,98998.19
2022-09-02T11:12:09.442Z,99006.28
2022-09-02T11:14:46.751Z,99000.44
2022-09-02T11:17:51.779Z,98994.41
2022-09-02T11:20:38.777Z,99001.72
2022-09-02T11:23:22.165Z,98987.44
2022-09-02T11:25:57.546Z,98987.88
2022-09-02T11:28:56.098Z,98986.00
2022-09-02T11:31:31.626Z,98989.72
2022-09-02T11:34:06.043Z,98983.84
2022-09-02T11:36:42.362Z,98990.44
2022-09-02T11:39:21.958Z,98993.19
2022-09-02T11:42:00.583Z,98994.91
2022-09-02T11:44:33.054Z,98984.25
2022-09-02T11:47:25.884Z,98982.97
2022-09-02T11:50:27.566Z,98967.19
2022-09-02T11:53:21.658Z,98979.13
2022-09-02T11:56:08.756Z,98982.75
2022-09-02T11:58:42.091Z,98979.44
2022-09-02T12:01:14.772Z,98975.50
2022-09-02T12:04:16.156Z,98984.63
2022-09-02T12:06:34.540Z,98968.06
2022-09-02T12:09:12.729Z,98975.72
2022-09-02T12:11:42.217Z,98972.59
2022-09-02T12:14:14.970Z,98974.78
2022-09-02T12:17:09.985Z,98963.81
2022-09-02T12:19:39.940Z,98971.03
2022-09-02T12:22:15.871Z,98964.56
2022-09-02T12:24:55.291Z,98960.28
2022-09-02T12:27:25.141Z,98965.13
2022-09-02T12:29:55.587Z,98951.69
2022-09-02T12:32:51.313Z,98931.22
2022-09-02T12:38:16.414Z,98930.97
2022-09-02T12:41:19.633Z,98929.38
2022-09-02T12:44:04.482Z,98932.59
2022-09-02T12:46:44.758Z,98923.63
2022-09-02T12:49:48.485Z,98913.88
2022-09-02T12:52:47.469Z,98920.72
2022-09-02T12:55:28.324Z,98927.41
2022-09-02T12:58:05.587Z,98917.25
2022-09-02T13:01:16.791Z,98910.59
2022-09-02T13:04:01.496Z,98912.59
2022-09-02T13:06:54.265Z,98906.91
2022-09-02T13:09:45.151Z,98887.53
2022-09-02T13:12:30.871Z,98895.44
2022-09-02T13:15:01.702Z,98887.78
2022-09-02T13:17:46.628Z,98894.94
2022-09-02T13:20:56.793Z,98882.03
2022-09-02T13:23:31.768Z,98875.72
2022-09-02T13:26:32.968Z,98877.00
2022-09-02T13:29:38.240Z,98871.44
2022-09-02T13:32:10.699Z,98875.44
2022-09-02T13:34:45.450Z,98866.16
2022-09-02T13:37:33.811Z,98863.84
2022-09-02T13:40:13.899Z,98854.94
2022-09-02T13:42:48.900Z,98871.91
2022-09-02T13:45:20.346Z,98863.59
2022-09-02T13:47:49.044Z,98865.22
2022-09-02T13:50:18.913Z,98862.41
2022-09-02T13:55:58.161Z,98861.59
2022-09-02T13:58:35.388Z,98860.28
2022-09-02T14:01:17.505Z,98864.66
2022-09-02T14:03:52.556Z,98854.25
2022-09-02T14:06:23.554Z,98850.38
2022-09-02T14:09:05.093Z,98847.41
2022-09-02T14:11:43.715Z,98850.03
2022-09-02T14:14:19.082Z,98839.56
2022-09-02T14:16:45.706Z,98830.38
2022-09-02T14:19:18.285Z,98831.63
2022-09-02T14:22:00.610Z,98833.97
2022-09-02T14:24:29.902Z,98823.91
2022-09-02T14:26:58.190Z,98830.06
2022-09-02T14:29:25.642Z,98826.56
2022-09-02T14:32:15.346Z,98822.69
2022-09-02T14:34:44.169Z,98817.50
2022-09-02T14:37:16.712Z,98819.50
2022-09-02T14:40:12.851Z,98804.53
2022-09-02T14:42:45.062Z,98806.44
2022-09-02T14:45:12.388Z,98813.25
2022-09-02T14:47:39.721Z,98811.97
2022-09-02T14:50:11.243Z,98802.63
2022-09-02T14:52:38.679Z,98803.69
2022-09-02T14:55:08.528Z,98813.31
2022-09-02T14:57:38.120Z,98813.00
2022-09-02T15:00:11.258Z,98808.97
2022-09-02T15:02:40.753Z,98808.34
2022-09-02T15:05:14.509Z,98801.84
2022-09-02T15:07:41.549Z,98807.28
2022-09-02T15:10:11.853Z,98808.63
2022-09-02T15:12:51.735Z,98797.28
2022-09-02T15:15:18.404Z,98809.19
2022-09-02T15:17:45.118Z,98797.06
2022-09-02T15:20:12.033Z,98799.34
2022-09-02T15:22:38.635Z,98796.59
2022-09-02T15:25:07.949Z,98800.16
2022-09-02T15:27:34.938Z,98806.75
2022-09-02T15:30:02.159Z,98803.13
2022-09-02T15:32:28.667Z,98802.72
2022-09-02T15:34:55.330Z,98792.31
2022-09-02T15:37:21.796Z,98796.56
2022-09-02T15:39:49.992Z,98805.38
2022-09-02T15:42:18.170Z,98796.47
2022-09-02T15:44:44.896Z,98790.41
2022-09-02T15:47:11.439Z,98803.41
2022-09-02T15:49:37.959Z,98796.59
2022-09-02T15:52:04.988Z,98794.84
2022-09-02T15:54:31.824Z,98799.50
2022-09-02T15:56:59.012Z,98796.44
2022-09-02T15:59:26.089Z,98790.00
2022-09-02T16:01:58.762Z,98798.44
2022-09-02T16:04:27.423Z,98787.69
2022-09-02T16:06:54.038Z,98794.91
2022-09-02T16:09:22.205Z,98778.88
2022-09-02T16:11:50.743Z,98782.81
2022-09-02T16:14:20.651Z,98788.78
2022-09-02T16:16:49.065Z,98777.69
2022-09-02T16:19:15.755Z,98779.78
2022-09-02T16:21:42.365Z,98782.13
2022-09-02T16:24:09.453Z,98778.69
2022-09-02T16:26:40.903Z,98774.97
2022-09-02T16:29:12.140Z,98779.56
2022-09-02T16:31:41.385Z,98776.94
2022-09-02T16:34:13.306Z,98778.53
2022-09-02T16:36:44.362Z,98781.34
2022-09-02T16:39:13.005Z,98782.22
2022-09-02T16:41:47.648Z,98771.69
2022-09-02T16:44:19.190Z,98774.28
2022-09-02T16:46:47.502Z,98769.81
2022-09-02T16:49:18.418Z,98769.72
2022-09-02T16:51:46.637Z,98766.06
2022-09-02T16:54:17.629Z,98765.16
2022-09-02T16:56:49.117Z,98765.28
2022-09-02T16:59:15.711Z,98770.53
2022-09-02T17:01:42.493Z,98764.47
2022-09-02T17:07:58.241Z,98764.63
2022-09-02T17:10:24.923Z,98763.28
2022-09-02T17:13:18.786Z,98758.09
2022-09-02T17:15:45.919Z,98764.16
2022-09-02T17:18:12.508Z,98753.03
2022-09-02T17:20:39.811Z,98747.78
2022-09-02T17:23:06.362Z,98751.22
2022-09-02T17:25:33.086Z,98754.84
2022-09-02T17:28:00.234Z,98756.28
2022-09-02T17:30:26.798Z,98749.91
2022-09-02T17:32:56.596Z,98744.81
2022-09-02T17:35:25.896Z,98752.66
2022-09-02T17:37:52.434Z,98750.97
2022-09-02T17:40:45.076Z,98751.09
2022-09-02T17:43:12.082Z,98739.91
2022-09-02T17:45:38.635Z,98744.28
2022-09-02T17:48:34.208Z,98754.06
2022-09-02T17:50:51.818Z,98739.28
2022-09-02T17:53:19.202Z,98739.84
2022-09-02T17:55:48.941Z,98735.78
2022-09-02T17:58:18.571Z,98739.22
2022-09-02T18:00:47.276Z,98735.56
2022-09-02T18:03:28.519Z,98737.59
2022-09-02T18:06:06.040Z,98740.03
2022-09-02T18:08:45.476Z,98739.75
2022-09-02T18:11:12.341Z,98735.00
2022-09-02T18:14:03.803Z,98743.88
2022-09-02T18:16:37.124Z,98741.25
2022-09-02T18:19:19.458Z,98737.09
2022-09-02T18:22:07.429Z,98731.00
2022-09-02T18:24:58.161Z,98731.00
2022-09-02T18:27:37.174Z,98728.75
2022-09-02T18:30:09.826Z,98736.66
2022-09-02T18:32:52.091Z,98738.38
2022-09-02T18:35:28.849Z,98740.97
2022-09-02T18:38:07.858Z,98743.63
2022-09-02T18:41:05.368Z,98738.50
2022-09-02T18:43:39.147Z,98744.78
2022-09-02T18:46:06.661Z,98739.78
2022-09-02T18:48:35.485Z,98752.97
2022-09-02T18:51:35.950Z,98757.41
2022-09-02T18:54:08.920Z,98755.81
2022-09-02T18:56:36.820Z,98754.16
2022-09-02T18:59:11.682Z,98753.19
2022-09-02T19:01:44.897Z,98754.88
2022-09-02T19:04:11.498Z,98757.56
2022-09-02T19:06:38.210Z,98761.97
2022-09-02T19:09:13.700Z,98755.91
2022-09-02T19:11:40.823Z,98762.84
2022-09-02T19:14:29.114Z,98754.16
2022-09-02T19:17:00.149Z,98763.06
2022-09-02T19:19:29.620Z,98759.56
2022-09-02T19:21:59.769Z,98761.31
2022-09-02T19:24:46.324Z,98755.28
2022-09-02T19:27:15.735Z,98755.28
2022-09-02T19:29:47.920Z,98756.25
2022-09-02T19:32:15.150Z,98753.66
2022-09-02T19:34:44.030Z,98759.00
2022-09-02T19:37:14.157Z,98763.44
2022-09-02T19:39:40.755Z,98755.66
2022-09-02T19:42:07.334Z,98756.53
2022-09-02T19:44:33.925Z,98758.31
2022-09-02T19:49:47.888Z,98747.84
2022-09-02T19:52:14.461Z,98752.28
2022-09-02T19:54:41.785Z,98741.84
2022-09-02T19:57:08.484Z,98742.81
2022-09-02T19:59:37.682Z,98749.03
2022-09-02T20:02:04.633Z,98752.59
2022-09-02T20:04:31.792Z,98756.09
2022-09-02T20:06:58.894Z,98756.06
2022-09-02T20:09:25.724Z,98749.13
2022-09-02T20:11:56.057Z,98760.47
2022-09-02T20:14:22.588Z,98762.97
2022-09-02T20:16:53.937Z,98767.47
2022-09-02T20:19:21.426Z,98770.13
2022-09-02T20:21:49.294Z,98764.06
2022-09-02T20:24:25.389Z,98772.88
2022-09-02T20:27:07.223Z,98770.13
2022-09-02T20:30:00.554Z,98770.38
2022-09-02T20:32:29.971Z,98772.91
2022-09-02T20:35:07.208Z,98780.69
2022-09-02T20:38:03.678Z,98775.53
2022-09-02T20:40:48.279Z,98778.22
2022-09-02T20:43:30.014Z,98782.63
2022-09-02T20:46:13.436Z,98786.13
2022-09-02T20:48:42.963Z,98786.94
2022-09-02T20:51:20.856Z,98779.06
2022-09-02T20:54:02.638Z,98785.22
2022-09-02T20:56:38.730Z,98779.09
2022-09-02T20:59:15.546Z,98783.44
2022-09-02T21:01:42.584Z,98786.97
2022-09-02T21:04:29.954Z,98779.28
2022-09-02T21:07:08.586Z,98785.44
2022-09-02T21:09:57.208Z,98785.44
2022-09-02T21:12:36.958Z,98777.59
2022-09-02T21:15:10.507Z,98774.06
2022-09-02T21:17:53.701Z,98779.34
2022-09-02T21:20:29.757Z,98775.78
2022-09-02T21:22:58.622Z,98778.41
2022-09-02T21:25:33.315Z,98772.31
2022-09-02T21:28:09.665Z,98774.06
2022-09-02T21:30:41.851Z,98761.88
2022-09-02T21:33:16.116Z,98767.91
2022-09-02T21:35:50.121Z,98761.00
2022-09-02T21:38:31.079Z,98757.59
2022-09-02T21:41:07.733Z,98756.78
2022-09-02T21:43:56.498Z,98756.78
2022-09-02T21:46:32.326Z,98760.28
2022-09-02T21:49:05.257Z,98767.31
2022-09-02T21:51:44.032Z,98772.59
2022-09-02T21:54:31.085Z,98776.16
2022-09-02T21:57:22.619Z,98781.38
2022-09-02T22:00:07.336Z,98777.03
2022-09-02T22:02:41.332Z,98775.31
2022-09-02T22:05:29.657Z,98783.13
2022-09-02T22:08:14.874Z,98789.22
2022-09-02T22:11:07.479Z,98785.75
2022-09-02T22:13:42.961Z,98777.94
2022-09-02T22:17:16.079Z,98776.22
2022-09-02T22:19:42.983Z,98778.81
2022-09-02T22:22:13.758Z,98775.34
2022-09-02T22:24:44.871Z,98770.97
2022-09-02T22:27:17.257Z,98771.00
2022-09-02T22:29:50.829Z,98770.13
2022-09-02T22:32:24.479Z,98766.59
2022-09-02T22:35:17.550Z,98763.81
2022-09-02T22:38:16.539Z,98765.56
2022-09-02T22:40:46.683Z,98763.88
2022-09-02T22:43:15.780Z,98755.22
2022-09-02T22:46:07.473Z,98751.69
2022-09-02T22:48:56.454Z,98753.50
2022-09-02T22:51:55.491Z,98763.94
2022-09-02T22:54:21.959Z,98757.03
2022-09-02T22:57:07.010Z,98759.59
2022-09-02T23:00:20.884Z,98763.13
2022-09-02T23:03:16.616Z,98755.28
2022-09-02T23:05:44.571Z,98750.09
2022-09-02T23:08:15.479Z,98750.00
2022-09-02T23:11:12.770Z,98739.59
2022-09-02T23:14:00.887Z,98737.00
2022-09-02T23:17:05.320Z,98746.56
2022-09-02T23:20:07.338Z,98749.13
2022-09-02T23:22:42.116Z,98751.63
2022-09-02T23:25:17.864Z,98756.84
2022-09-02T23:27:55.246Z,98754.28
2022-09-02T23:30:21.944Z,98747.34
2022-09-02T23:33:10.037Z,98754.31
2022-09-02T23:35:36.486Z,98752.63
2022-09-02T23:38:19.601Z,98753.47
2022-09-02T23:40:57.643Z,98749.19
2022-09-02T23:43:24.161Z,98747.44
2022-09-02T23:45:51.561Z,98741.34
2022-09-02T23:48:47.599Z,98739.59
2022-09-02T23:51:25.132Z,98750.94
2022-09-02T23:54:03.753Z,98750.91
2022-09-02T23:56:53.632Z,98749.22
2022-09-02T23:59:33.887Z,98746.59
